Time;durP1;ratioP1;P1;durP2;ratioP2;P2;SDS_P1;SDS_P2;PMS_P1;PMS_P2;Temp;Humidity;BMP_temperature;BMP_pressure;BME280_temperature;BME280_humidity;BME280_pressure;Samples;Min_cycle;Max_cycle;Signal;HPM_P1;HPM_P2
2022/10/15 00:01:43;;;;;;;0.78;0.78;;;17.10;99.90;;;;;;935633;150;27441;-79
2022/10/15 00:04:09;;;;;;;1.55;1.17;;;17.10;99.90;;;;;;936677;151;27366;-79
2022/10/15 00:06:36;;;;;;;2.40;1.50;;;17.10;99.90;;;;;;935858;151;27428;-79
2022/10/15 00:09:02;;;;;;;1.30;1.05;;;17.10;99.90;;;;;;935453;151;27338;-79
2022/10/15 00:11:30;;;;;;;2.30;1.27;;;17.10;99.90;;;;;;937155;151;27780;-78
2022/10/15 00:13:56;;;;;;;3.00;1.40;;;17.10;99.90;;;;;;934919;151;27314;-79
2022/10/15 00:16:22;;;;;;;1.75;1.65;;;17.10;99.90;;;;;;933898;149;27436;-79
2022/10/15 00:18:49;;;;;;;1.60;1.50;;;17.00;99.90;;;;;;937055;151;27363;-78
2022/10/15 00:21:15;;;;;;;1.80;1.70;;;17.10;99.90;;;;;;935317;151;27299;-79
2022/10/15 00:23:42;;;;;;;1.80;1.40;;;17.00;99.90;;;;;;933489;151;27351;-78
2022/10/15 00:26:08;;;;;;;1.40;1.30;;;17.00;99.90;;;;;;935652;149;27277;-78
2022/10/15 00:28:35;;;;;;;1.77;1.67;;;17.00;99.90;;;;;;936287;151;27311;-79
2022/10/15 00:31:02;;;;;;;1.55;1.45;;;17.10;99.90;;;;;;935890;150;27362;-79
2022/10/15 00:33:28;;;;;;;2.35;1.50;;;17.10;99.90;;;;;;934667;151;27756;-78
2022/10/15 00:35:58;;;;;;;2.10;1.50;;;17.10;99.90;;;;;;938160;149;27277;-79
2022/10/15 00:38:24;;;;;;;1.30;1.30;;;17.00;99.90;;;;;;937129;148;27269;-78
2022/10/15 00:40:51;;;;;;;2.70;1.60;;;17.10;99.90;;;;;;935288;149;27343;-79
2022/10/15 00:43:17;;;;;;;1.77;1.67;;;17.10;99.90;;;;;;935482;150;27381;-78
2022/10/15 00:45:44;;;;;;;2.85;1.57;;;17.10;99.90;;;;;;933173;149;27282;-78
2022/10/15 00:48:11;;;;;;;2.40;1.72;;;17.10;99.90;;;;;;935308;151;27450;-79
2022/10/15 00:50:37;;;;;;;1.30;1.30;;;17.10;99.90;;;;;;935502;149;27328;-78
2022/10/15 00:53:07;;;;;;;1.25;1.25;;;17.10;99.90;;;;;;933543;151;27304;-78
2022/10/15 00:55:33;;;;;;;1.50;1.40;;;17.10;99.90;;;;;;936011;151;27362;-78
2022/10/15 00:58:00;;;;;;;1.55;1.37;;;17.10;99.90;;;;;;933412;151;27772;-78
2022/10/15 01:00:26;;;;;;;2.47;1.62;;;17.10;99.90;;;;;;934943;151;27324;-78
2022/10/15 01:02:53;;;;;;;1.35;1.10;;;17.10;99.90;;;;;;935325;151;27883;-78
2022/10/15 01:05:20;;;;;;;1.37;1.17;;;17.00;99.90;;;;;;935597;149;27284;-78
2022/10/15 01:07:46;;;;;;;3.00;1.40;;;17.00;99.90;;;;;;935746;149;27414;-78
2022/10/15 01:10:13;;;;;;;1.32;1.22;;;17.10;99.90;;;;;;934968;151;27342;-78
2022/10/15 01:12:43;;;;;;;1.70;1.45;;;17.10;99.90;;;;;;934571;149;27263;-78
2022/10/15 01:15:18;;;;;;;1.57;1.47;;;17.10;99.90;;;;;;934862;151;27323;-78
2022/10/15 01:17:45;;;;;;;1.98;1.32;;;17.10;99.90;;;;;;936583;151;27408;-78
2022/10/15 01:20:26;;;;;;;2.35;1.30;;;17.10;99.90;;;;;;934131;151;27319;-78
2022/10/15 01:23:26;;;;;;;3.87;1.37;;;17.00;99.90;;;;;;933600;151;27345;-78
2022/10/15 01:26:30;;;;;;;1.90;1.22;;;17.10;99.90;;;;;;934206;151;27366;-79
2022/10/15 01:29:05;;;;;;;1.57;1.47;;;17.10;99.90;;;;;;935899;150;27844;-79
2022/10/15 01:31:32;;;;;;;1.47;1.37;;;17.10;99.90;;;;;;933284;149;27366;-78
2022/10/15 01:34:02;;;;;;;2.47;1.10;;;17.10;99.90;;;;;;935693;151;27368;-78
2022/10/15 01:36:34;;;;;;;1.20;1.20;;;17.10;99.90;;;;;;934079;151;27432;-78
2022/10/15 01:39:01;;;;;;;1.50;1.40;;;17.10;99.90;;;;;;936967;151;27315;-79
2022/10/15 01:41:45;;;;;;;1.32;1.22;;;17.10;99.90;;;;;;933357;151;27375;-78
2022/10/15 01:44:12;;;;;;;1.60;1.40;;;17.00;99.90;;;;;;936214;150;27996;-78
2022/10/15 01:46:39;;;;;;;1.50;1.40;;;17.10;99.90;;;;;;934107;151;27303;-79
2022/10/15 01:49:05;;;;;;;1.20;1.10;;;17.10;99.90;;;;;;933882;151;27593;-78
2022/10/15 01:51:32;;;;;;;1.37;1.27;;;17.10;99.90;;;;;;935173;150;27330;-78
2022/10/15 01:53:58;;;;;;;1.20;1.10;;;17.10;99.90;;;;;;936230;151;27339;-78
2022/10/15 01:56:25;;;;;;;1.02;1.02;;;17.10;99.90;;;;;;937223;149;27476;-78
2022/10/15 01:58:52;;;;;;;2.60;1.20;;;17.10;99.90;;;;;;935142;151;27359;-78
2022/10/15 02:01:18;;;;;;;1.42;1.20;;;17.10;99.90;;;;;;936632;151;27401;-78
2022/10/15 02:03:48;;;;;;;1.45;1.32;;;17.10;99.90;;;;;;934195;149;27317;-79
2022/10/15 02:06:14;;;;;;;1.55;1.32;;;17.20;99.90;;;;;;935927;150;27400;-78
2022/10/15 02:08:55;;;;;;;1.40;1.30;;;17.20;99.90;;;;;;931986;151;27366;-78
2022/10/15 02:11:22;;;;;;;1.22;1.22;;;17.20;99.90;;;;;;936534;151;27589;-78
2022/10/15 02:14:01;;;;;;;1.77;1.50;;;17.20;99.90;;;;;;936872;151;27291;-78
2022/10/15 02:16:30;;;;;;;3.27;1.40;;;17.20;99.90;;;;;;935496;151;27353;-78
2022/10/15 02:19:05;;;;;;;1.65;1.32;;;17.20;99.90;;;;;;933826;151;27321;-79
2022/10/15 02:21:32;;;;;;;1.22;1.22;;;17.20;99.90;;;;;;923975;151;27370;-80
2022/10/15 02:23:59;;;;;;;1.60;1.50;;;17.20;99.90;;;;;;934389;151;27426;-81
2022/10/15 02:26:25;;;;;;;1.37;1.27;;;17.20;99.90;;;;;;934249;149;27303;-81
2022/10/15 02:28:52;;;;;;;1.10;1.10;;;17.20;99.90;;;;;;935791;151;27303;-80
2022/10/15 02:31:18;;;;;;;1.50;1.40;;;17.20;99.90;;;;;;936319;151;27481;-79
2022/10/15 02:33:45;;;;;;;1.70;1.60;;;17.20;99.90;;;;;;934969;151;27367;-81
2022/10/15 02:36:12;;;;;;;2.55;1.67;;;17.20;99.90;;;;;;935668;151;27327;-81
2022/10/15 02:38:38;;;;;;;1.80;1.70;;;17.30;99.90;;;;;;934468;149;27295;-80
2022/10/15 02:41:05;;;;;;;1.60;1.50;;;17.30;99.90;;;;;;936099;149;27300;-80
2022/10/15 02:43:31;;;;;;;1.70;1.60;;;17.30;99.90;;;;;;935615;151;27336;-80
2022/10/15 02:45:58;;;;;;;1.65;1.52;;;17.30;99.90;;;;;;930551;151;27474;-81
2022/10/15 02:48:25;;;;;;;1.52;1.42;;;17.20;99.90;;;;;;931613;152;27564;-80
2022/10/15 02:50:51;;;;;;;1.70;1.60;;;17.20;99.90;;;;;;931979;150;27298;-80
2022/10/15 02:53:18;;;;;;;1.60;1.50;;;17.30;99.90;;;;;;931431;150;27303;-81
2022/10/15 02:55:45;;;;;;;2.22;1.42;;;17.30;99.90;;;;;;931636;152;27329;-80
2022/10/15 02:58:11;;;;;;;1.45;1.35;;;17.20;99.90;;;;;;930646;151;27351;-79
2022/10/15 03:00:37;;;;;;;2.55;1.75;;;17.20;99.90;;;;;;932018;150;27351;-80
2022/10/15 03:03:04;;;;;;;1.70;1.60;;;17.20;99.90;;;;;;932218;152;27388;-80
2022/10/15 03:05:31;;;;;;;2.08;1.80;;;17.30;99.90;;;;;;932581;152;27354;-80
2022/10/15 03:07:57;;;;;;;2.30;1.47;;;17.30;99.90;;;;;;931716;152;27428;-80
2022/10/15 03:10:24;;;;;;;1.80;1.70;;;17.30;99.90;;;;;;929427;152;27379;-80
2022/10/15 03:12:50;;;;;;;1.98;1.70;;;17.30;99.90;;;;;;930392;152;27309;-81
2022/10/15 03:15:17;;;;;;;1.60;1.50;;;17.30;99.90;;;;;;929598;152;27297;-81
2022/10/15 03:17:44;;;;;;;1.92;1.60;;;17.30;99.90;;;;;;931142;152;27329;-80
2022/10/15 03:20:10;;;;;;;1.82;1.70;;;17.30;99.90;;;;;;931082;152;27345;-79
2022/10/15 03:22:37;;;;;;;2.00;1.90;;;17.30;99.90;;;;;;928142;152;27365;-81
2022/10/15 03:25:03;;;;;;;1.90;1.80;;;17.30;99.90;;;;;;929716;152;27343;-80
2022/10/15 03:27:30;;;;;;;1.98;1.82;;;17.30;99.90;;;;;;930492;152;27422;-80
2022/10/15 03:29:57;;;;;;;1.90;1.80;;;17.30;99.90;;;;;;929169;152;27352;-80
2022/10/15 03:32:23;;;;;;;1.85;1.75;;;17.30;99.90;;;;;;931961;150;27277;-80
2022/10/15 03:34:50;;;;;;;1.85;1.75;;;17.30;99.90;;;;;;931149;150;27425;-79
2022/10/15 03:37:16;;;;;;;2.45;1.95;;;17.40;99.90;;;;;;932659;150;27330;-81
2022/10/15 03:39:43;;;;;;;2.35;2.15;;;17.40;99.90;;;;;;931688;152;27332;-80
2022/10/15 03:42:09;;;;;;;1.92;1.57;;;17.30;99.90;;;;;;931404;152;27311;-80
2022/10/15 03:44:36;;;;;;;2.35;2.20;;;17.30;99.90;;;;;;931597;151;27714;-80
2022/10/15 03:47:03;;;;;;;1.92;1.82;;;17.40;99.90;;;;;;936966;149;27426;-80
2022/10/15 03:49:29;;;;;;;3.08;2.10;;;17.40;99.90;;;;;;935717;151;27336;-81
2022/10/15 03:51:56;;;;;;;1.85;1.75;;;17.40;99.90;;;;;;934915;151;27337;-80
2022/10/15 03:54:22;;;;;;;2.12;1.95;;;17.40;99.90;;;;;;934073;151;27293;-80
2022/10/15 03:56:49;;;;;;;1.82;1.72;;;17.40;99.90;;;;;;934753;151;27311;-81
2022/10/15 03:59:16;;;;;;;1.98;1.87;;;17.40;99.90;;;;;;936142;151;27307;-80
2022/10/15 04:01:42;;;;;;;2.95;2.30;;;17.40;99.90;;;;;;933833;151;27387;-81
2022/10/15 04:04:09;;;;;;;1.92;1.82;;;17.40;99.90;;;;;;936240;151;27347;-79
2022/10/15 04:06:35;;;;;;;2.42;2.22;;;17.40;99.90;;;;;;936837;151;27322;-80
2022/10/15 04:09:02;;;;;;;2.02;1.92;;;17.40;99.90;;;;;;935122;149;27753;-80
2022/10/15 04:11:29;;;;;;;2.55;2.35;;;17.40;99.90;;;;;;934887;151;27312;-80
2022/10/15 04:13:55;;;;;;;2.33;2.22;;;17.40;99.90;;;;;;937027;151;27449;-79
2022/10/15 04:16:22;;;;;;;2.12;2.02;;;17.40;99.90;;;;;;936916;150;27345;-80
2022/10/15 04:18:48;;;;;;;3.02;2.80;;;17.40;99.90;;;;;;935993;151;27308;-80
2022/10/15 04:21:15;;;;;;;2.70;2.30;;;17.40;99.90;;;;;;936048;151;27286;-81
2022/10/15 04:23:41;;;;;;;5.92;2.50;;;17.40;99.90;;;;;;936594;151;27346;-81
2022/10/15 04:26:08;;;;;;;2.52;2.33;;;17.40;99.90;;;;;;934385;150;27387;-79
2022/10/15 04:28:35;;;;;;;2.55;2.35;;;17.40;99.90;;;;;;936784;151;27427;-81
2022/10/15 04:31:01;;;;;;;3.40;2.47;;;17.50;99.90;;;;;;934795;149;27471;-81
2022/10/15 04:33:28;;;;;;;3.50;2.40;;;17.40;99.90;;;;;;935939;149;27412;-81
2022/10/15 04:36:07;;;;;;;2.45;2.25;;;17.50;99.90;;;;;;936394;151;27312;-81
2022/10/15 04:38:33;;;;;;;2.65;2.45;;;17.50;99.90;;;;;;936607;149;27280;-80
2022/10/15 04:41:03;;;;;;;2.70;2.50;;;17.50;99.90;;;;;;935779;151;27299;-80
2022/10/15 04:43:30;;;;;;;2.02;1.82;;;17.50;99.90;;;;;;936245;151;27371;-81
2022/10/15 04:46:00;;;;;;;3.20;2.72;;;17.50;99.90;;;;;;934760;151;27331;-80
2022/10/15 04:48:29;;;;;;;2.60;2.40;;;17.50;99.90;;;;;;932490;150;27402;-81
2022/10/15 04:50:56;;;;;;;2.62;2.15;;;17.50;99.90;;;;;;929207;152;27703;-81
2022/10/15 04:53:23;;;;;;;2.50;2.30;;;17.50;99.90;;;;;;930299;151;27299;-79
2022/10/15 04:55:49;;;;;;;2.62;2.42;;;17.50;99.90;;;;;;928987;152;27349;-80
2022/10/15 04:58:16;;;;;;;2.83;2.40;;;17.50;99.90;;;;;;930509;152;27426;-81
2022/10/15 05:00:42;;;;;;;2.40;2.20;;;17.60;99.90;;;;;;931442;151;27423;-81
2022/10/15 05:03:09;;;;;;;2.22;2.12;;;17.60;99.90;;;;;;930904;151;27441;-80
2022/10/15 05:05:35;;;;;;;3.60;2.47;;;17.60;99.90;;;;;;933372;149;27402;-81
2022/10/15 05:08:02;;;;;;;2.10;2.00;;;17.60;99.90;;;;;;931518;151;27406;-81
2022/10/15 05:10:29;;;;;;;3.05;2.52;;;17.60;99.90;;;;;;930801;151;27855;-80
2022/10/15 05:12:55;;;;;;;2.60;2.40;;;17.60;99.90;;;;;;930944;152;27372;-81
2022/10/15 05:15:22;;;;;;;2.47;2.37;;;17.60;99.90;;;;;;931303;152;27231;-81
2022/10/15 05:17:48;;;;;;;3.22;2.58;;;17.60;99.90;;;;;;930488;151;27320;-81
2022/10/15 05:20:15;;;;;;;2.40;2.20;;;17.70;99.90;;;;;;933143;152;27427;-81
2022/10/15 05:22:42;;;;;;;2.92;2.47;;;17.60;99.90;;;;;;928371;152;27296;-80
2022/10/15 05:25:08;;;;;;;2.75;2.55;;;17.70;99.90;;;;;;930881;150;27362;-81
2022/10/15 05:27:35;;;;;;;2.37;2.27;;;17.70;99.90;;;;;;931778;151;27448;-81
2022/10/15 05:30:01;;;;;;;2.70;2.35;;;17.70;99.90;;;;;;932394;152;27421;-81
2022/10/15 05:32:28;;;;;;;6.20;2.72;;;17.70;99.90;;;;;;931402;149;27342;-81
2022/10/15 05:34:55;;;;;;;2.45;2.25;;;17.70;99.90;;;;;;931223;151;27316;-80
2022/10/15 05:37:21;;;;;;;2.80;2.60;;;17.70;99.90;;;;;;930392;152;27363;-80
2022/10/15 05:39:48;;;;;;;2.40;2.30;;;17.70;99.90;;;;;;930642;151;27505;-81
2022/10/15 05:42:14;;;;;;;2.80;2.60;;;17.70;99.90;;;;;;929717;152;27368;-81
2022/10/15 05:44:41;;;;;;;2.80;2.60;;;17.70;99.90;;;;;;929576;152;27366;-80
2022/10/15 05:47:10;;;;;;;3.00;2.80;;;17.70;99.90;;;;;;930943;151;27508;-81
2022/10/15 05:49:34;;;;;;;3.10;2.90;;;17.70;99.90;;;;;;931219;150;27436;-81
2022/10/15 05:52:01;;;;;;;4.10;3.80;;;17.70;99.90;;;;;;931271;151;27350;-81
2022/10/15 05:54:27;;;;;;;3.42;3.12;;;17.70;99.90;;;;;;930577;152;27367;-80
2022/10/15 05:56:54;;;;;;;3.05;2.85;;;17.70;99.90;;;;;;929058;152;27337;-81
2022/10/15 05:59:21;;;;;;;3.22;3.02;;;17.70;99.90;;;;;;929940;152;27444;-81
2022/10/15 06:01:47;;;;;;;3.05;2.85;;;17.70;99.90;;;;;;930849;151;27366;-81
2022/10/15 06:04:15;;;;;;;3.77;3.50;;;17.70;99.90;;;;;;930203;149;27303;-80
2022/10/15 06:06:40;;;;;;;4.25;3.95;;;17.70;99.90;;;;;;930090;152;27435;-81
2022/10/15 06:09:07;;;;;;;4.08;3.55;;;17.70;99.90;;;;;;932384;151;28845;-81
2022/10/15 06:11:34;;;;;;;4.22;3.92;;;17.70;99.90;;;;;;929863;152;27300;-81
2022/10/15 06:14:00;;;;;;;4.53;4.12;;;17.60;99.90;;;;;;930679;152;27287;-81
2022/10/15 06:16:27;;;;;;;4.10;3.80;;;17.60;99.90;;;;;;932526;152;27336;-80
2022/10/15 06:18:53;;;;;;;3.98;3.67;;;17.60;99.90;;;;;;931919;152;27426;-81
2022/10/15 06:21:20;;;;;;;3.80;3.50;;;17.70;99.90;;;;;;932743;151;27364;-81
2022/10/15 06:23:46;;;;;;;5.12;3.52;;;17.70;99.90;;;;;;931063;151;27327;-81
2022/10/15 06:26:13;;;;;;;4.35;3.47;;;17.60;99.90;;;;;;932712;150;27770;-81
2022/10/15 06:28:40;;;;;;;3.83;3.52;;;17.70;99.90;;;;;;930954;150;27381;-80
2022/10/15 06:31:06;;;;;;;3.45;3.15;;;17.60;99.90;;;;;;933317;152;27372;-81
2022/10/15 06:33:33;;;;;;;3.67;3.42;;;17.70;99.90;;;;;;929508;150;27447;-80
2022/10/15 06:36:02;;;;;;;3.50;3.30;;;17.70;99.90;;;;;;930625;150;27308;-81
2022/10/15 06:38:29;;;;;;;3.90;3.60;;;17.70;99.90;;;;;;931791;151;27326;-80
2022/10/15 06:40:55;;;;;;;4.40;4.00;;;17.70;99.90;;;;;;931063;152;27319;-80
2022/10/15 06:43:22;;;;;;;3.52;3.22;;;17.70;99.90;;;;;;931097;152;27469;-81
2022/10/15 06:45:48;;;;;;;3.12;2.92;;;17.70;99.90;;;;;;929662;150;28941;-81
2022/10/15 06:48:15;;;;;;;3.30;3.00;;;17.70;99.90;;;;;;935059;150;27319;-81
2022/10/15 06:50:42;;;;;;;3.60;3.30;;;17.70;99.90;;;;;;936590;151;27426;-81
2022/10/15 06:53:08;;;;;;;2.37;2.17;;;17.80;99.90;;;;;;936207;151;27393;-80
2022/10/15 06:55:35;;;;;;;3.50;3.15;;;17.80;99.90;;;;;;936449;151;27448;-81
2022/10/15 06:58:01;;;;;;;2.72;2.52;;;17.80;99.90;;;;;;937698;149;27350;-81
2022/10/15 07:00:28;;;;;;;2.40;2.30;;;17.80;99.90;;;;;;937194;149;27438;-80
2022/10/15 07:02:56;;;;;;;3.15;2.17;;;17.80;99.90;;;;;;937859;151;27311;-81
2022/10/15 07:05:22;;;;;;;2.70;2.50;;;17.80;99.90;;;;;;936743;150;27328;-81
2022/10/15 07:07:51;;;;;;;3.95;2.77;;;17.90;99.90;;;;;;935696;151;27287;-81
2022/10/15 07:10:18;;;;;;;2.45;2.30;;;17.90;99.90;;;;;;934812;151;27413;-80
2022/10/15 07:12:45;;;;;;;2.30;2.15;;;17.90;99.90;;;;;;936894;151;27451;-81
2022/10/15 07:15:11;;;;;;;2.40;2.20;;;17.90;99.90;;;;;;936301;151;27264;-81
2022/10/15 07:17:38;;;;;;;2.35;2.15;;;17.90;99.90;;;;;;936648;149;27306;-80
2022/10/15 07:20:04;;;;;;;2.35;2.20;;;17.90;99.90;;;;;;935698;151;27394;-81
2022/10/15 07:22:31;;;;;;;2.40;2.20;;;18.00;99.90;;;;;;934563;151;27251;-80
2022/10/15 07:24:58;;;;;;;2.20;2.00;;;18.00;99.90;;;;;;937273;150;27354;-79
2022/10/15 07:27:24;;;;;;;2.08;1.98;;;18.00;99.90;;;;;;936610;151;27362;-80
2022/10/15 07:29:51;;;;;;;3.05;2.50;;;18.00;99.90;;;;;;934240;149;27332;-81
2022/10/15 07:32:17;;;;;;;2.45;2.25;;;18.00;99.90;;;;;;935545;149;27264;-80
2022/10/15 07:34:44;;;;;;;1.95;1.80;;;18.00;99.90;;;;;;934779;149;27820;-80
2022/10/15 07:37:11;;;;;;;1.80;1.70;;;18.00;99.90;;;;;;936264;151;27433;-79
2022/10/15 07:39:37;;;;;;;2.17;1.90;;;18.00;99.90;;;;;;935420;151;27362;-81
2022/10/15 07:42:04;;;;;;;1.90;1.80;;;18.00;99.90;;;;;;935518;151;27475;-81
2022/10/15 07:44:30;;;;;;;1.65;1.55;;;18.00;99.90;;;;;;935811;149;27324;-80
2022/10/15 07:46:57;;;;;;;1.72;1.62;;;18.00;99.90;;;;;;936435;148;27354;-81
2022/10/15 07:49:24;;;;;;;1.72;1.62;;;18.10;99.90;;;;;;937083;150;27347;-80
2022/10/15 07:51:50;;;;;;;2.05;1.92;;;18.10;99.90;;;;;;935792;151;27375;-79
2022/10/15 07:54:17;;;;;;;2.05;1.95;;;18.20;99.90;;;;;;936339;151;27521;-80
2022/10/15 07:56:43;;;;;;;2.27;2.05;;;18.30;99.90;;;;;;935026;149;27392;-81
2022/10/15 07:59:10;;;;;;;1.87;1.77;;;18.40;99.90;;;;;;936998;151;27369;-80
2022/10/15 08:01:36;;;;;;;2.20;2.00;;;18.50;99.90;;;;;;934475;150;27414;-81
2022/10/15 08:04:03;;;;;;;2.25;2.15;;;18.60;99.90;;;;;;934248;149;27320;-80
2022/10/15 08:06:30;;;;;;;2.33;1.95;;;18.70;99.90;;;;;;934987;149;27451;-81
2022/10/15 08:08:56;;;;;;;1.72;1.62;;;18.80;99.90;;;;;;935151;151;27421;-81
2022/10/15 08:11:23;;;;;;;2.52;1.80;;;18.90;99.90;;;;;;936515;149;27293;-81
2022/10/15 08:13:49;;;;;;;2.12;1.92;;;19.10;99.90;;;;;;936534;149;27637;-80
2022/10/15 08:16:18;;;;;;;2.47;1.87;;;19.20;99.90;;;;;;935012;151;27468;-79
2022/10/15 08:18:43;;;;;;;1.82;1.72;;;19.40;99.90;;;;;;935270;151;27348;-81
2022/10/15 08:21:09;;;;;;;1.70;1.60;;;19.50;99.90;;;;;;934893;151;27315;-81
2022/10/15 08:23:36;;;;;;;2.12;1.92;;;19.60;99.90;;;;;;935062;151;27356;-81
2022/10/15 08:26:02;;;;;;;1.80;1.70;;;19.80;99.90;;;;;;935004;150;27339;-81
2022/10/15 08:28:29;;;;;;;1.80;1.70;;;20.00;99.90;;;;;;937198;151;27435;-80
2022/10/15 08:30:58;;;;;;;1.42;1.32;;;20.40;99.90;;;;;;934857;151;27468;-82
2022/10/15 08:33:25;;;;;;;1.72;1.62;;;20.80;99.90;;;;;;937730;151;27299;-81
2022/10/15 08:35:52;;;;;;;1.35;1.27;;;21.30;99.90;;;;;;936100;151;27284;-82
2022/10/15 08:38:18;;;;;;;2.00;1.35;;;21.80;99.90;;;;;;937041;149;27272;-81
2022/10/15 08:40:47;;;;;;;1.30;1.30;;;22.10;99.90;;;;;;936704;151;27310;-81
2022/10/15 08:43:29;;;;;;;1.40;1.30;;;22.40;99.90;;;;;;935099;151;27450;-81
2022/10/15 08:45:56;;;;;;;1.00;1.00;;;22.60;99.90;;;;;;937303;148;27354;-82
2022/10/15 08:48:28;;;;;;;1.30;1.20;;;22.70;99.90;;;;;;934660;149;27346;-82
2022/10/15 08:50:54;;;;;;;1.10;1.10;;;22.70;99.90;;;;;;930001;151;27279;-81
2022/10/15 08:53:21;;;;;;;1.02;1.02;;;22.60;99.90;;;;;;931079;151;27321;-80
2022/10/15 08:55:48;;;;;;;1.45;1.35;;;22.50;99.90;;;;;;932277;152;27329;-81
2022/10/15 08:58:24;;;;;;;1.45;1.35;;;22.40;99.90;;;;;;932711;151;27317;-81
2022/10/15 09:00:50;;;;;;;2.05;1.52;;;22.30;99.90;;;;;;932849;151;27338;-81
2022/10/15 09:03:37;;;;;;;1.22;1.22;;;22.30;99.90;;;;;;930361;150;27309;-81
2022/10/15 09:06:10;;;;;;;3.35;1.37;;;22.20;99.90;;;;;;928923;152;27450;-81
2022/10/15 09:08:49;;;;;;;1.50;1.40;;;22.10;99.90;;;;;;929523;151;27477;-81
2022/10/15 09:11:37;;;;;;;1.35;1.32;;;22.10;99.90;;;;;;931485;152;27347;-81
2022/10/15 09:14:04;;;;;;;1.42;1.32;;;22.10;99.90;;;;;;931509;152;27385;-81
2022/10/15 09:16:33;;;;;;;1.35;1.32;;;22.00;99.90;;;;;;929774;149;27256;-82
2022/10/15 09:19:00;;;;;;;1.07;1.07;;;22.00;99.90;;;;;;929467;152;27345;-81
2022/10/15 09:21:26;;;;;;;1.62;1.50;;;21.90;99.90;;;;;;931268;151;27264;-81
2022/10/15 09:23:56;;;;;;;1.67;1.15;;;21.90;99.90;;;;;;929878;152;27888;-80
2022/10/15 09:26:34;;;;;;;0.90;0.90;;;21.90;99.90;;;;;;929359;151;28987;-81
2022/10/15 09:29:20;;;;;;;0.82;0.82;;;21.80;99.90;;;;;;930413;152;27896;-81
2022/10/15 09:31:54;;;;;;;1.12;0.90;;;21.80;99.90;;;;;;931051;149;27350;-81
2022/10/15 09:34:42;;;;;;;1.07;0.98;;;21.70;99.90;;;;;;931446;149;27269;-81
2022/10/15 09:37:11;;;;;;;0.88;0.72;;;21.70;99.90;;;;;;930193;150;27375;-81
2022/10/15 09:40:06;;;;;;;0.88;0.88;;;21.60;99.90;;;;;;930154;149;27373;-81
2022/10/15 09:42:35;;;;;;;2.47;0.90;;;21.60;99.90;;;;;;931639;149;27353;-81
2022/10/15 09:45:05;;;;;;;0.80;0.80;;;21.60;99.90;;;;;;930589;149;27432;-81
2022/10/15 09:47:31;;;;;;;0.95;0.95;;;21.60;99.90;;;;;;929298;150;27301;-80
2022/10/15 09:49:58;;;;;;;1.75;0.80;;;21.60;99.90;;;;;;930356;151;27394;-81
2022/10/15 09:52:43;;;;;;;0.70;0.70;;;21.70;99.90;;;;;;931586;149;27347;-81
2022/10/15 09:55:10;;;;;;;0.80;0.75;;;21.80;99.90;;;;;;931167;152;27363;-81
2022/10/15 09:57:36;;;;;;;0.65;0.65;;;21.90;99.90;;;;;;928711;152;27469;-81
2022/10/15 10:00:03;;;;;;;0.80;0.62;;;22.10;99.90;;;;;;931224;151;27309;-81
2022/10/15 10:02:29;;;;;;;1.57;0.60;;;22.20;99.90;;;;;;932262;150;27334;-80
2022/10/15 10:04:56;;;;;;;0.47;0.47;;;22.40;99.90;;;;;;930206;152;27805;-81
2022/10/15 10:07:32;;;;;;;0.57;0.57;;;22.50;99.90;;;;;;933360;151;27440;-80
2022/10/15 10:10:07;;;;;;;0.40;0.40;;;22.50;99.90;;;;;;930811;149;27443;-81
2022/10/15 10:12:33;;;;;;;2.02;0.50;;;22.50;99.90;;;;;;924001;152;27359;-81
2022/10/15 10:15:09;;;;;;;0.93;0.68;;;22.50;99.90;;;;;;930371;152;27264;-80
2022/10/15 10:17:36;;;;;;;0.40;0.40;;;22.50;99.90;;;;;;919886;152;27333;-80
2022/10/15 10:20:02;;;;;;;0.45;0.37;;;22.50;99.90;;;;;;931188;150;27340;-79
2022/10/15 10:22:29;;;;;;;0.70;0.50;;;22.50;99.90;;;;;;929074;151;27901;-81
2022/10/15 10:24:55;;;;;;;3.83;0.60;;;22.50;99.90;;;;;;932091;152;27281;-81
2022/10/15 10:27:22;;;;;;;0.42;0.40;;;22.50;99.90;;;;;;930880;152;27437;-81
2022/10/15 10:29:49;;;;;;;1.15;0.70;;;22.50;99.90;;;;;;929933;152;27309;-81
2022/10/15 10:32:30;;;;;;;0.65;0.50;;;22.50;99.90;;;;;;928625;152;27385;-80
2022/10/15 10:34:57;;;;;;;0.90;0.88;;;22.50;99.90;;;;;;929495;150;27406;-82
2022/10/15 10:37:24;;;;;;;4.80;0.90;;;22.50;99.90;;;;;;929344;152;27376;-81
2022/10/15 10:39:56;;;;;;;0.78;0.78;;;22.50;99.90;;;;;;931604;150;27400;-81
2022/10/15 10:42:26;;;;;;;0.62;0.62;;;22.50;99.90;;;;;;932126;151;27265;-82
2022/10/15 10:44:52;;;;;;;0.68;0.62;;;22.50;99.90;;;;;;930020;152;27391;-80
2022/10/15 10:47:19;;;;;;;0.98;0.55;;;22.50;99.90;;;;;;932672;152;27423;-81
2022/10/15 10:49:54;;;;;;;0.98;0.55;;;22.50;99.90;;;;;;930246;150;27412;-81
2022/10/15 10:52:30;;;;;;;0.65;0.40;;;22.40;99.90;;;;;;928571;152;27317;-81
2022/10/15 10:55:23;;;;;;;0.47;0.47;;;22.40;99.90;;;;;;931569;151;27278;-81
2022/10/15 10:57:47;;;;;;;1.00;0.60;;;22.30;99.90;;;;;;929970;151;27465;-81
2022/10/15 11:00:29;;;;;;;0.28;0.25;;;22.20;99.90;;;;;;930379;149;27341;-81
2022/10/15 11:02:55;;;;;;;0.50;0.50;;;22.20;99.90;;;;;;931694;152;27363;-82
2022/10/15 11:05:22;;;;;;;0.55;0.47;;;22.10;99.90;;;;;;931132;150;27361;-81
2022/10/15 11:07:49;;;;;;;0.47;0.47;;;22.00;99.90;;;;;;928771;152;27410;-81
2022/10/15 11:10:30;;;;;;;0.55;0.55;;;21.90;99.90;;;;;;914496;151;27342;-81
2022/10/15 11:13:09;;;;;;;0.62;0.50;;;21.90;99.90;;;;;;931657;152;27375;-79
2022/10/15 11:15:47;;;;;;;0.60;0.60;;;21.80;99.90;;;;;;931767;150;28150;-81
2022/10/15 11:18:26;;;;;;;1.02;0.70;;;21.70;99.90;;;;;;929954;152;27264;-81
2022/10/15 11:20:53;;;;;;;2.65;0.82;;;21.60;99.90;;;;;;932139;149;27331;-81
2022/10/15 11:23:56;;;;;;;1.45;0.60;;;21.60;99.90;;;;;;931368;151;27389;-81
2022/10/15 11:26:35;;;;;;;0.80;0.80;;;21.40;99.90;;;;;;930651;150;27300;-81
2022/10/15 11:29:13;;;;;;;0.72;0.70;;;21.40;99.90;;;;;;928928;152;27408;-81
2022/10/15 11:31:56;;;;;;;0.82;0.80;;;21.30;99.90;;;;;;929738;149;27350;-80
2022/10/15 11:34:36;;;;;;;1.10;1.10;;;21.20;99.90;;;;;;929767;152;27367;-80
2022/10/15 11:37:06;;;;;;;1.10;1.00;;;21.20;99.90;;;;;;914392;152;27413;-81
2022/10/15 11:39:54;;;;;;;0.90;0.80;;;21.20;99.90;;;;;;931697;147;27369;-81
2022/10/15 11:42:24;;;;;;;1.00;0.90;;;21.20;99.90;;;;;;929250;152;27773;-81
2022/10/15 11:45:15;;;;;;;1.00;1.00;;;21.40;99.90;;;;;;925684;152;27936;-81
2022/10/15 11:47:53;;;;;;;0.75;0.75;;;21.50;99.90;;;;;;933042;150;27367;-82
2022/10/15 11:50:41;;;;;;;0.93;0.65;;;21.60;99.90;;;;;;931572;150;27307;-80
2022/10/15 11:53:23;;;;;;;0.93;0.75;;;21.70;99.90;;;;;;933525;149;27414;-80
2022/10/15 11:56:02;;;;;;;0.40;0.40;;;21.80;99.90;;;;;;935731;151;27362;-82
2022/10/15 11:58:40;;;;;;;0.60;0.60;;;21.90;99.90;;;;;;935591;151;27455;-82
2022/10/15 12:01:07;;;;;;;0.55;0.55;;;22.00;99.90;;;;;;935880;149;27295;-82
2022/10/15 12:03:34;;;;;;;0.75;0.75;;;22.00;99.90;;;;;;937398;151;27320;-82
2022/10/15 12:06:00;;;;;;;0.62;0.62;;;22.10;99.90;;;;;;933513;151;27439;-81
2022/10/15 12:08:27;;;;;;;1.02;0.98;;;22.20;99.90;;;;;;935388;151;27437;-82
2022/10/15 12:11:02;;;;;;;0.70;0.70;;;22.30;99.90;;;;;;934712;151;27335;-82
2022/10/15 12:13:35;;;;;;;1.00;1.00;;;22.30;99.90;;;;;;917269;151;27460;-82
2022/10/15 12:16:13;;;;;;;0.53;0.53;;;22.40;99.90;;;;;;934016;151;27378;-81
2022/10/15 12:18:45;;;;;;;0.78;0.78;;;22.50;99.90;;;;;;934777;151;27359;-80
2022/10/15 12:21:39;;;;;;;0.60;0.60;;;22.50;99.90;;;;;;923098;151;27752;-82
2022/10/15 12:24:09;;;;;;;0.70;0.70;;;22.50;99.90;;;;;;934404;151;27393;-81
2022/10/15 12:26:32;;;;;;;0.75;0.75;;;22.50;99.90;;;;;;930796;151;27426;-81
2022/10/15 12:28:59;;;;;;;0.90;0.90;;;22.50;99.90;;;;;;935954;149;27328;-81
2022/10/15 12:31:25;;;;;;;0.75;0.75;;;22.50;99.90;;;;;;935626;151;27379;-82
2022/10/15 12:33:52;;;;;;;0.80;0.80;;;22.60;99.90;;;;;;936740;149;27441;-82
2022/10/15 12:36:18;;;;;;;0.80;0.80;;;22.60;99.90;;;;;;935915;151;27348;-82
2022/10/15 12:38:51;;;;;;;0.85;0.75;;;22.50;99.90;;;;;;936486;149;27291;-81
2022/10/15 12:41:18;;;;;;;0.65;0.65;;;22.50;99.90;;;;;;935254;151;27318;-81
2022/10/15 12:43:44;;;;;;;0.60;0.60;;;22.50;99.50;;;;;;935316;151;27335;-80
2022/10/15 12:46:11;;;;;;;1.52;0.70;;;22.40;99.40;;;;;;932210;151;27453;-81
2022/10/15 12:48:38;;;;;;;0.60;0.60;;;22.30;99.60;;;;;;934014;151;27456;-81
2022/10/15 12:51:16;;;;;;;0.82;0.50;;;22.30;99.70;;;;;;933834;151;27296;-82
2022/10/15 12:53:42;;;;;;;1.05;0.62;;;22.20;99.60;;;;;;934426;151;27325;-81
2022/10/15 12:56:09;;;;;;;0.80;0.80;;;22.10;99.50;;;;;;932613;150;27323;-81
2022/10/15 12:58:36;;;;;;;0.57;0.57;;;22.10;99.80;;;;;;932243;150;27368;-82